sensor_id;sensor_type;location;lat;lon;timestamp;P1;durP1;ratioP1;P2;durP2;ratioP2
76228;SDS011;65021;53.174;18.160;2022-12-26T00:01:55;25.20;;;11.80;;
76228;SDS011;65021;53.174;18.160;2022-12-26T00:04:22;26.50;;;10.50;;
76228;SDS011;65021;53.174;18.160;2022-12-26T00:06:49;20.50;;;9.20;;
76228;SDS011;65021;53.174;18.160;2022-12-26T00:09:15;28.60;;;9.80;;
76228;SDS011;65021;53.174;18.160;2022-12-26T00:11:42;25.40;;;9.80;;
76228;SDS011;65021;53.174;18.160;2022-12-26T00:14:13;24.40;;;9.50;;
76228;SDS011;65021;53.174;18.160;2022-12-26T00:16:41;28.60;;;11.00;;
76228;SDS011;65021;53.174;18.160;2022-12-26T00:19:09;24.30;;;8.50;;
76228;SDS011;65021;53.174;18.160;2022-12-26T00:21:37;16.70;;;7.40;;
76228;SDS011;65021;53.174;18.160;2022-12-26T00:24:04;22.30;;;8.40;;
76228;SDS011;65021;53.174;18.160;2022-12-26T00:26:31;27.20;;;10.70;;
76228;SDS011;65021;53.174;18.160;2022-12-26T00:28:59;26.40;;;10.50;;
76228;SDS011;65021;53.174;18.160;2022-12-26T00:31:27;27.70;;;12.70;;
76228;SDS011;65021;53.174;18.160;2022-12-26T00:33:57;27.70;;;11.00;;
76228;SDS011;65021;53.174;18.160;2022-12-26T00:36:25;21.80;;;9.60;;
76228;SDS011;65021;53.174;18.160;2022-12-26T00:38:55;15.10;;;6.50;;
76228;SDS011;65021;53.174;18.160;2022-12-26T00:41:23;28.60;;;11.70;;
76228;SDS011;65021;53.174;18.160;2022-12-26T00:43:49;29.60;;;12.60;;
76228;SDS011;65021;53.174;18.160;2022-12-26T00:46:16;27.40;;;10.30;;
76228;SDS011;65021;53.174;18.160;2022-12-26T00:48:43;23.70;;;8.10;;
76228;SDS011;65021;53.174;18.160;2022-12-26T00:51:10;25.70;;;9.50;;
76228;SDS011;65021;53.174;18.160;2022-12-26T00:53:37;33.00;;;13.20;;
76228;SDS011;65021;53.174;18.160;2022-12-26T00:56:04;29.60;;;13.20;;
76228;SDS011;65021;53.174;18.160;2022-12-26T00:58:31;28.00;;;10.50;;
76228;SDS011;65021;53.174;18.160;2022-12-26T01:01:04;14.30;;;5.70;;
76228;SDS011;65021;53.174;18.160;2022-12-26T01:03:32;28.30;;;11.60;;
76228;SDS011;65021;53.174;18.160;2022-12-26T01:06:00;33.00;;;11.60;;
76228;SDS011;65021;53.174;18.160;2022-12-26T01:08:27;23.40;;;8.60;;
76228;SDS011;65021;53.174;18.160;2022-12-26T01:10:54;26.30;;;10.20;;
76228;SDS011;65021;53.174;18.160;2022-12-26T01:13:20;26.10;;;11.20;;
76228;SDS011;65021;53.174;18.160;2022-12-26T01:15:51;24.00;;;11.50;;
76228;SDS011;65021;53.174;18.160;2022-12-26T01:18:19;28.40;;;11.00;;
76228;SDS011;65021;53.174;18.160;2022-12-26T01:20:46;35.60;;;13.40;;
76228;SDS011;65021;53.174;18.160;2022-12-26T01:23:14;21.80;;;9.20;;
76228;SDS011;65021;53.174;18.160;2022-12-26T01:25:41;25.70;;;11.10;;
76228;SDS011;65021;53.174;18.160;2022-12-26T01:28:08;29.70;;;12.60;;
76228;SDS011;65021;53.174;18.160;2022-12-26T01:30:35;31.60;;;12.50;;
76228;SDS011;65021;53.174;18.160;2022-12-26T01:33:02;27.20;;;12.00;;
76228;SDS011;65021;53.174;18.160;2022-12-26T01:35:29;21.00;;;10.50;;
76228;SDS011;65021;53.174;18.160;2022-12-26T01:37:55;25.80;;;9.30;;
76228;SDS011;65021;53.174;18.160;2022-12-26T01:40:22;28.60;;;13.20;;
76228;SDS011;65021;53.174;18.160;2022-12-26T01:42:48;23.70;;;11.00;;
76228;SDS011;65021;53.174;18.160;2022-12-26T01:45:28;21.30;;;9.00;;
76228;SDS011;65021;53.174;18.160;2022-12-26T01:48:04;25.40;;;11.10;;
76228;SDS011;65021;53.174;18.160;2022-12-26T01:50:45;27.20;;;10.70;;
76228;SDS011;65021;53.174;18.160;2022-12-26T01:55:59;22.80;;;10.20;;
76228;SDS011;65021;53.174;18.160;2022-12-26T01:58:30;21.90;;;9.30;;
76228;SDS011;65021;53.174;18.160;2022-12-26T02:01:01;19.70;;;7.70;;
76228;SDS011;65021;53.174;18.160;2022-12-26T02:03:29;22.20;;;10.00;;
76228;SDS011;65021;53.174;18.160;2022-12-26T02:06:15;21.90;;;9.50;;
76228;SDS011;65021;53.174;18.160;2022-12-26T02:08:42;19.90;;;9.80;;
76228;SDS011;65021;53.174;18.160;2022-12-26T02:11:15;19.60;;;8.00;;
76228;SDS011;65021;53.174;18.160;2022-12-26T02:16:31;24.90;;;11.20;;
76228;SDS011;65021;53.174;18.160;2022-12-26T02:18:58;22.60;;;10.00;;
76228;SDS011;65021;53.174;18.160;2022-12-26T02:31:50;21.70;;;10.30;;
76228;SDS011;65021;53.174;18.160;2022-12-26T02:34:25;21.30;;;9.20;;
76228;SDS011;65021;53.174;18.160;2022-12-26T02:40:01;26.10;;;9.70;;
76228;SDS011;65021;53.174;18.160;2022-12-26T02:42:49;21.20;;;8.80;;
76228;SDS011;65021;53.174;18.160;2022-12-26T02:48:19;26.50;;;10.90;;
76228;SDS011;65021;53.174;18.160;2022-12-26T02:54:00;15.80;;;8.00;;
76228;SDS011;65021;53.174;18.160;2022-12-26T02:57:03;22.10;;;10.00;;
76228;SDS011;65021;53.174;18.160;2022-12-26T02:59:53;26.00;;;12.10;;
76228;SDS011;65021;53.174;18.160;2022-12-26T03:05:51;18.60;;;8.30;;
76228;SDS011;65021;53.174;18.160;2022-12-26T03:08:45;17.20;;;8.40;;
76228;SDS011;65021;53.174;18.160;2022-12-26T03:11:38;18.80;;;9.10;;
76228;SDS011;65021;53.174;18.160;2022-12-26T03:14:26;19.90;;;8.90;;
76228;SDS011;65021;53.174;18.160;2022-12-26T03:17:06;13.20;;;5.90;;
76228;SDS011;65021;53.174;18.160;2022-12-26T03:22:27;17.30;;;8.50;;
76228;SDS011;65021;53.174;18.160;2022-12-26T03:25:16;12.20;;;5.00;;
76228;SDS011;65021;53.174;18.160;2022-12-26T03:28:06;17.40;;;8.70;;
76228;SDS011;65021;53.174;18.160;2022-12-26T03:30:33;15.30;;;7.00;;
76228;SDS011;65021;53.174;18.160;2022-12-26T03:33:16;10.60;;;4.50;;
76228;SDS011;65021;53.174;18.160;2022-12-26T03:36:14;18.00;;;8.80;;
76228;SDS011;65021;53.174;18.160;2022-12-26T03:41:25;18.50;;;9.30;;
76228;SDS011;65021;53.174;18.160;2022-12-26T03:47:38;17.60;;;9.40;;
76228;SDS011;65021;53.174;18.160;2022-12-26T03:53:28;10.70;;;4.20;;
76228;SDS011;65021;53.174;18.160;2022-12-26T03:56:29;22.40;;;10.50;;
76228;SDS011;65021;53.174;18.160;2022-12-26T03:59:23;19.70;;;10.40;;
76228;SDS011;65021;53.174;18.160;2022-12-26T04:02:13;21.10;;;10.40;;
76228;SDS011;65021;53.174;18.160;2022-12-26T04:05:00;24.10;;;11.90;;
76228;SDS011;65021;53.174;18.160;2022-12-26T04:07:51;17.50;;;8.60;;
76228;SDS011;65021;53.174;18.160;2022-12-26T04:10:59;21.80;;;9.90;;
76228;SDS011;65021;53.174;18.160;2022-12-26T04:16:43;25.20;;;11.70;;
76228;SDS011;65021;53.174;18.160;2022-12-26T04:19:41;21.20;;;10.30;;
76228;SDS011;65021;53.174;18.160;2022-12-26T04:22:52;27.90;;;13.80;;
76228;SDS011;65021;53.174;18.160;2022-12-26T04:25:43;28.90;;;12.80;;
76228;SDS011;65021;53.174;18.160;2022-12-26T04:28:33;25.10;;;12.80;;
76228;SDS011;65021;53.174;18.160;2022-12-26T04:34:32;32.10;;;15.30;;
76228;SDS011;65021;53.174;18.160;2022-12-26T04:37:29;30.10;;;14.50;;
76228;SDS011;65021;53.174;18.160;2022-12-26T04:43:07;25.40;;;11.00;;
76228;SDS011;65021;53.174;18.160;2022-12-26T04:45:54;30.30;;;14.60;;
76228;SDS011;65021;53.174;18.160;2022-12-26T04:48:21;34.80;;;16.50;;
76228;SDS011;65021;53.174;18.160;2022-12-26T04:51:07;31.60;;;15.90;;
76228;SDS011;65021;53.174;18.160;2022-12-26T04:53:33;19.80;;;9.40;;
76228;SDS011;65021;53.174;18.160;2022-12-26T04:56:00;28.20;;;14.10;;
76228;SDS011;65021;53.174;18.160;2022-12-26T04:58:26;28.50;;;15.00;;
76228;SDS011;65021;53.174;18.160;2022-12-26T05:00:53;25.70;;;14.00;;
76228;SDS011;65021;53.174;18.160;2022-12-26T05:03:39;27.10;;;13.70;;
76228;SDS011;65021;53.174;18.160;2022-12-26T05:06:25;31.60;;;16.50;;
76228;SDS011;65021;53.174;18.160;2022-12-26T05:09:09;29.60;;;15.60;;
76228;SDS011;65021;53.174;18.160;2022-12-26T05:12:05;25.90;;;13.80;;
76228;SDS011;65021;53.174;18.160;2022-12-26T05:14:34;30.00;;;15.20;;
76228;SDS011;65021;53.174;18.160;2022-12-26T05:17:01;30.50;;;15.00;;
76228;SDS011;65021;53.174;18.160;2022-12-26T05:19:48;32.50;;;16.00;;
76228;SDS011;65021;53.174;18.160;2022-12-26T05:22:33;30.90;;;16.40;;
76228;SDS011;65021;53.174;18.160;2022-12-26T05:25:26;28.10;;;14.10;;
76228;SDS011;65021;53.174;18.160;2022-12-26T05:28:14;28.90;;;13.60;;
76228;SDS011;65021;53.174;18.160;2022-12-26T05:31:00;24.30;;;12.70;;
76228;SDS011;65021;53.174;18.160;2022-12-26T05:33:27;26.30;;;13.90;;
76228;SDS011;65021;53.174;18.160;2022-12-26T05:36:13;27.10;;;12.70;;
76228;SDS011;65021;53.174;18.160;2022-12-26T05:38:40;30.70;;;16.10;;
76228;SDS011;65021;53.174;18.160;2022-12-26T05:41:07;29.50;;;15.00;;
76228;SDS011;65021;53.174;18.160;2022-12-26T05:43:33;27.10;;;14.00;;
76228;SDS011;65021;53.174;18.160;2022-12-26T05:46:00;28.30;;;14.30;;
76228;SDS011;65021;53.174;18.160;2022-12-26T05:48:27;26.30;;;12.20;;
76228;SDS011;65021;53.174;18.160;2022-12-26T05:50:57;22.70;;;11.50;;
76228;SDS011;65021;53.174;18.160;2022-12-26T05:53:25;27.40;;;12.80;;
76228;SDS011;65021;53.174;18.160;2022-12-26T05:55:52;25.70;;;11.50;;
76228;SDS011;65021;53.174;18.160;2022-12-26T05:58:18;23.40;;;12.90;;
76228;SDS011;65021;53.174;18.160;2022-12-26T06:00:45;26.00;;;11.80;;
76228;SDS011;65021;53.174;18.160;2022-12-26T06:03:12;26.70;;;12.60;;
76228;SDS011;65021;53.174;18.160;2022-12-26T06:05:39;24.40;;;13.40;;
76228;SDS011;65021;53.174;18.160;2022-12-26T06:08:05;22.50;;;9.40;;
76228;SDS011;65021;53.174;18.160;2022-12-26T06:10:32;28.00;;;12.60;;
76228;SDS011;65021;53.174;18.160;2022-12-26T06:12:58;21.80;;;11.10;;
76228;SDS011;65021;53.174;18.160;2022-12-26T06:15:25;32.10;;;14.90;;
76228;SDS011;65021;53.174;18.160;2022-12-26T06:17:53;19.50;;;8.20;;
76228;SDS011;65021;53.174;18.160;2022-12-26T06:20:21;31.00;;;13.80;;
76228;SDS011;65021;53.174;18.160;2022-12-26T06:22:48;27.50;;;13.00;;
76228;SDS011;65021;53.174;18.160;2022-12-26T06:25:14;32.50;;;16.50;;
76228;SDS011;65021;53.174;18.160;2022-12-26T06:27:41;34.00;;;16.20;;
76228;SDS011;65021;53.174;18.160;2022-12-26T06:30:09;35.30;;;16.50;;
76228;SDS011;65021;53.174;18.160;2022-12-26T06:32:36;30.50;;;15.10;;
76228;SDS011;65021;53.174;18.160;2022-12-26T06:35:02;25.30;;;12.40;;
76228;SDS011;65021;53.174;18.160;2022-12-26T06:37:29;31.20;;;15.50;;
76228;SDS011;65021;53.174;18.160;2022-12-26T06:39:57;23.70;;;11.00;;
76228;SDS011;65021;53.174;18.160;2022-12-26T06:42:24;37.70;;;19.50;;
76228;SDS011;65021;53.174;18.160;2022-12-26T06:44:50;34.90;;;19.30;;
76228;SDS011;65021;53.174;18.160;2022-12-26T06:47:17;33.10;;;16.10;;
76228;SDS011;65021;53.174;18.160;2022-12-26T06:49:43;33.60;;;16.90;;
76228;SDS011;65021;53.174;18.160;2022-12-26T06:52:10;29.80;;;15.10;;
76228;SDS011;65021;53.174;18.160;2022-12-26T06:54:39;32.90;;;16.00;;
76228;SDS011;65021;53.174;18.160;2022-12-26T06:57:06;31.80;;;16.60;;
76228;SDS011;65021;53.174;18.160;2022-12-26T06:59:33;32.00;;;16.30;;
76228;SDS011;65021;53.174;18.160;2022-12-26T07:01:59;29.60;;;17.20;;
76228;SDS011;65021;53.174;18.160;2022-12-26T07:04:26;26.10;;;13.00;;
76228;SDS011;65021;53.174;18.160;2022-12-26T07:06:52;26.60;;;12.00;;
76228;SDS011;65021;53.174;18.160;2022-12-26T07:09:19;25.10;;;14.80;;
76228;SDS011;65021;53.174;18.160;2022-12-26T07:11:46;23.90;;;12.50;;
76228;SDS011;65021;53.174;18.160;2022-12-26T07:14:15;35.00;;;17.20;;
76228;SDS011;65021;53.174;18.160;2022-12-26T07:16:43;28.60;;;14.30;;
76228;SDS011;65021;53.174;18.160;2022-12-26T07:19:12;28.40;;;14.60;;
76228;SDS011;65021;53.174;18.160;2022-12-26T07:21:39;24.40;;;11.50;;
76228;SDS011;65021;53.174;18.160;2022-12-26T07:24:08;21.50;;;10.30;;
76228;SDS011;65021;53.174;18.160;2022-12-26T07:26:43;20.60;;;10.60;;
76228;SDS011;65021;53.174;18.160;2022-12-26T07:29:11;17.90;;;8.60;;
76228;SDS011;65021;53.174;18.160;2022-12-26T07:31:38;16.10;;;8.50;;
76228;SDS011;65021;53.174;18.160;2022-12-26T07:34:05;18.50;;;9.00;;
76228;SDS011;65021;53.174;18.160;2022-12-26T07:36:32;18.30;;;8.20;;
76228;SDS011;65021;53.174;18.160;2022-12-26T07:38:59;18.60;;;8.10;;
76228;SDS011;65021;53.174;18.160;2022-12-26T07:41:27;16.70;;;6.90;;
76228;SDS011;65021;53.174;18.160;2022-12-26T07:44:13;15.20;;;6.20;;
76228;SDS011;65021;53.174;18.160;2022-12-26T07:46:39;14.70;;;6.20;;
76228;SDS011;65021;53.174;18.160;2022-12-26T07:49:06;16.30;;;7.40;;
76228;SDS011;65021;53.174;18.160;2022-12-26T07:51:33;13.70;;;7.30;;
76228;SDS011;65021;53.174;18.160;2022-12-26T07:53:59;17.00;;;7.80;;
76228;SDS011;65021;53.174;18.160;2022-12-26T07:56:26;15.00;;;7.70;;
76228;SDS011;65021;53.174;18.160;2022-12-26T07:58:52;12.10;;;5.90;;
76228;SDS011;65021;53.174;18.160;2022-12-26T08:01:19;12.90;;;5.50;;
76228;SDS011;65021;53.174;18.160;2022-12-26T08:03:49;16.50;;;7.50;;
76228;SDS011;65021;53.174;18.160;2022-12-26T08:06:16;13.60;;;6.60;;
76228;SDS011;65021;53.174;18.160;2022-12-26T08:08:44;15.30;;;7.10;;
76228;SDS011;65021;53.174;18.160;2022-12-26T08:11:16;13.20;;;6.10;;
76228;SDS011;65021;53.174;18.160;2022-12-26T08:13:45;15.20;;;6.90;;
76228;SDS011;65021;53.174;18.160;2022-12-26T08:16:12;12.80;;;6.20;;
76228;SDS011;65021;53.174;18.160;2022-12-26T08:18:40;15.20;;;7.20;;
76228;SDS011;65021;53.174;18.160;2022-12-26T08:21:07;14.30;;;7.80;;
76228;SDS011;65021;53.174;18.160;2022-12-26T08:23:34;13.20;;;6.70;;
76228;SDS011;65021;53.174;18.160;2022-12-26T08:26:04;16.10;;;6.30;;
76228;SDS011;65021;53.174;18.160;2022-12-26T08:28:32;12.50;;;6.80;;
76228;SDS011;65021;53.174;18.160;2022-12-26T08:31:03;15.40;;;6.60;;
76228;SDS011;65021;53.174;18.160;2022-12-26T08:33:31;11.30;;;5.90;;
76228;SDS011;65021;53.174;18.160;2022-12-26T08:36:02;10.70;;;5.00;;
76228;SDS011;65021;53.174;18.160;2022-12-26T08:38:29;10.50;;;5.40;;
76228;SDS011;65021;53.174;18.160;2022-12-26T08:40:56;12.80;;;6.20;;
76228;SDS011;65021;53.174;18.160;2022-12-26T08:43:23;12.70;;;5.30;;
76228;SDS011;65021;53.174;18.160;2022-12-26T08:46:06;11.20;;;5.40;;
76228;SDS011;65021;53.174;18.160;2022-12-26T08:48:35;10.80;;;4.90;;
76228;SDS011;65021;53.174;18.160;2022-12-26T08:51:04;8.20;;;4.30;;
76228;SDS011;65021;53.174;18.160;2022-12-26T08:53:34;7.70;;;3.30;;
76228;SDS011;65021;53.174;18.160;2022-12-26T08:56:02;12.80;;;5.20;;
76228;SDS011;65021;53.174;18.160;2022-12-26T08:58:30;9.90;;;4.50;;
76228;SDS011;65021;53.174;18.160;2022-12-26T09:03:34;7.00;;;4.00;;
76228;SDS011;65021;53.174;18.160;2022-12-26T09:06:01;10.90;;;5.00;;
76228;SDS011;65021;53.174;18.160;2022-12-26T09:08:28;9.60;;;4.10;;
76228;SDS011;65021;53.174;18.160;2022-12-26T09:11:00;12.30;;;4.90;;
76228;SDS011;65021;53.174;18.160;2022-12-26T09:13:28;8.00;;;4.00;;
76228;SDS011;65021;53.174;18.160;2022-12-26T09:16:01;7.70;;;4.00;;
76228;SDS011;65021;53.174;18.160;2022-12-26T09:18:30;8.50;;;4.10;;
76228;SDS011;65021;53.174;18.160;2022-12-26T09:21:04;8.30;;;4.20;;
76228;SDS011;65021;53.174;18.160;2022-12-26T09:26:07;10.50;;;4.50;;
76228;SDS011;65021;53.174;18.160;2022-12-26T09:28:35;10.30;;;4.70;;
76228;SDS011;65021;53.174;18.160;2022-12-26T09:31:06;6.80;;;3.80;;
76228;SDS011;65021;53.174;18.160;2022-12-26T09:33:35;8.20;;;4.30;;
76228;SDS011;65021;53.174;18.160;2022-12-26T09:36:05;9.90;;;4.60;;
76228;SDS011;65021;53.174;18.160;2022-12-26T09:38:33;8.90;;;4.40;;
76228;SDS011;65021;53.174;18.160;2022-12-26T09:43:52;8.50;;;4.00;;
76228;SDS011;65021;53.174;18.160;2022-12-26T09:49:04;7.30;;;3.90;;
76228;SDS011;65021;53.174;18.160;2022-12-26T09:51:36;8.70;;;4.70;;
76228;SDS011;65021;53.174;18.160;2022-12-26T09:54:07;8.20;;;4.40;;
76228;SDS011;65021;53.174;18.160;2022-12-26T09:56:43;9.40;;;4.10;;
76228;SDS011;65021;53.174;18.160;2022-12-26T09:59:16;6.70;;;3.60;;
76228;SDS011;65021;53.174;18.160;2022-12-26T10:04:17;8.90;;;4.90;;
76228;SDS011;65021;53.174;18.160;2022-12-26T10:06:58;8.10;;;4.20;;
76228;SDS011;65021;53.174;18.160;2022-12-26T10:12:35;9.00;;;4.60;;
76228;SDS011;65021;53.174;18.160;2022-12-26T10:18:17;7.80;;;4.30;;
76228;SDS011;65021;53.174;18.160;2022-12-26T10:23:24;8.10;;;3.90;;
76228;SDS011;65021;53.174;18.160;2022-12-26T10:28:47;8.70;;;3.70;;
76228;SDS011;65021;53.174;18.160;2022-12-26T10:31:16;9.80;;;3.50;;
76228;SDS011;65021;53.174;18.160;2022-12-26T10:33:49;5.70;;;3.00;;
76228;SDS011;65021;53.174;18.160;2022-12-26T10:36:42;7.00;;;3.80;;
76228;SDS011;65021;53.174;18.160;2022-12-26T10:39:14;7.20;;;3.40;;
76228;SDS011;65021;53.174;18.160;2022-12-26T10:41:56;9.80;;;3.60;;
76228;SDS011;65021;53.174;18.160;2022-12-26T10:44:26;5.70;;;3.00;;
76228;SDS011;65021;53.174;18.160;2022-12-26T10:46:55;9.30;;;3.60;;
76228;SDS011;65021;53.174;18.160;2022-12-26T10:49:25;9.30;;;3.40;;
76228;SDS011;65021;53.174;18.160;2022-12-26T10:51:54;6.40;;;2.30;;
76228;SDS011;65021;53.174;18.160;2022-12-26T10:54:25;6.50;;;2.30;;
76228;SDS011;65021;53.174;18.160;2022-12-26T10:56:54;5.50;;;2.90;;
76228;SDS011;65021;53.174;18.160;2022-12-26T10:59:22;4.80;;;2.40;;
76228;SDS011;65021;53.174;18.160;2022-12-26T11:02:10;7.10;;;3.50;;
76228;SDS011;65021;53.174;18.160;2022-12-26T11:04:42;7.30;;;3.00;;
76228;SDS011;65021;53.174;18.160;2022-12-26T11:07:24;4.60;;;2.40;;
76228;SDS011;65021;53.174;18.160;2022-12-26T11:09:52;5.30;;;2.30;;
76228;SDS011;65021;53.174;18.160;2022-12-26T11:12:41;7.00;;;2.60;;
76228;SDS011;65021;53.174;18.160;2022-12-26T11:17:52;5.00;;;2.40;;
76228;SDS011;65021;53.174;18.160;2022-12-26T11:22:46;6.50;;;3.00;;
76228;SDS011;65021;53.174;18.160;2022-12-26T11:27:51;5.40;;;2.10;;
76228;SDS011;65021;53.174;18.160;2022-12-26T11:30:24;4.20;;;1.80;;
76228;SDS011;65021;53.174;18.160;2022-12-26T11:35:29;7.60;;;3.00;;
76228;SDS011;65021;53.174;18.160;2022-12-26T11:38:06;5.70;;;2.20;;
76228;SDS011;65021;53.174;18.160;2022-12-26T11:41:00;7.30;;;2.80;;
76228;SDS011;65021;53.174;18.160;2022-12-26T11:43:48;5.00;;;2.30;;
76228;SDS011;65021;53.174;18.160;2022-12-26T11:46:16;4.20;;;1.80;;
76228;SDS011;65021;53.174;18.160;2022-12-26T11:48:47;4.40;;;1.90;;
76228;SDS011;65021;53.174;18.160;2022-12-26T11:51:16;5.70;;;1.80;;
76228;SDS011;65021;53.174;18.160;2022-12-26T11:54:11;4.80;;;2.10;;
76228;SDS011;65021;53.174;18.160;2022-12-26T11:56:44;4.60;;;2.20;;
76228;SDS011;65021;53.174;18.160;2022-12-26T11:59:18;4.20;;;1.60;;
76228;SDS011;65021;53.174;18.160;2022-12-26T12:01:46;3.80;;;1.80;;
76228;SDS011;65021;53.174;18.160;2022-12-26T12:04:35;5.40;;;2.50;;
76228;SDS011;65021;53.174;18.160;2022-12-26T12:07:04;4.60;;;1.90;;
76228;SDS011;65021;53.174;18.160;2022-12-26T12:09:44;5.80;;;2.20;;
76228;SDS011;65021;53.174;18.160;2022-12-26T12:12:45;5.20;;;2.10;;
76228;SDS011;65021;53.174;18.160;2022-12-26T12:15:34;5.20;;;2.10;;
76228;SDS011;65021;53.174;18.160;2022-12-26T12:32:07;3.80;;;1.50;;
76228;SDS011;65021;53.174;18.160;2022-12-26T12:43:24;4.00;;;1.60;;
76228;SDS011;65021;53.174;18.160;2022-12-26T12:49:05;3.40;;;1.70;;
76228;SDS011;65021;53.174;18.160;2022-12-26T12:57:36;5.40;;;2.20;;
76228;SDS011;65021;53.174;18.160;2022-12-26T13:00:20;4.50;;;1.70;;
76228;SDS011;65021;53.174;18.160;2022-12-26T13:02:51;5.10;;;1.90;;
76228;SDS011;65021;53.174;18.160;2022-12-26T13:05:43;4.40;;;2.10;;
76228;SDS011;65021;53.174;18.160;2022-12-26T13:11:38;3.90;;;1.50;;
76228;SDS011;65021;53.174;18.160;2022-12-26T13:14:19;5.20;;;1.50;;
76228;SDS011;65021;53.174;18.160;2022-12-26T13:16:54;4.30;;;1.60;;
76228;SDS011;65021;53.174;18.160;2022-12-26T13:19:33;5.40;;;1.80;;
76228;SDS011;65021;53.174;18.160;2022-12-26T13:22:15;6.70;;;2.30;;
76228;SDS011;65021;53.174;18.160;2022-12-26T13:24:49;4.20;;;1.80;;
76228;SDS011;65021;53.174;18.160;2022-12-26T13:27:23;4.40;;;2.00;;
76228;SDS011;65021;53.174;18.160;2022-12-26T13:29:52;5.20;;;2.20;;
76228;SDS011;65021;53.174;18.160;2022-12-26T13:32:26;5.10;;;1.90;;
76228;SDS011;65021;53.174;18.160;2022-12-26T13:34:55;5.70;;;2.60;;
76228;SDS011;65021;53.174;18.160;2022-12-26T13:42:38;5.00;;;2.30;;
76228;SDS011;65021;53.174;18.160;2022-12-26T13:50:55;5.30;;;2.20;;
76228;SDS011;65021;53.174;18.160;2022-12-26T13:53:31;5.20;;;2.30;;
76228;SDS011;65021;53.174;18.160;2022-12-26T13:55:59;6.00;;;2.30;;
76228;SDS011;65021;53.174;18.160;2022-12-26T13:58:50;4.10;;;2.00;;
76228;SDS011;65021;53.174;18.160;2022-12-26T14:15:02;4.90;;;2.10;;
76228;SDS011;65021;53.174;18.160;2022-12-26T14:20:46;4.70;;;1.80;;
76228;SDS011;65021;53.174;18.160;2022-12-26T14:35:05;7.20;;;3.00;;
76228;SDS011;65021;53.174;18.160;2022-12-26T14:37:45;6.20;;;2.10;;
76228;SDS011;65021;53.174;18.160;2022-12-26T14:40:55;6.70;;;2.70;;
76228;SDS011;65021;53.174;18.160;2022-12-26T14:43:38;5.70;;;2.50;;
76228;SDS011;65021;53.174;18.160;2022-12-26T14:48:59;7.20;;;2.90;;
76228;SDS011;65021;53.174;18.160;2022-12-26T14:51:47;6.70;;;3.00;;
76228;SDS011;65021;53.174;18.160;2022-12-26T14:56:50;4.90;;;2.30;;
76228;SDS011;65021;53.174;18.160;2022-12-26T15:01:46;6.30;;;2.50;;
76228;SDS011;65021;53.174;18.160;2022-12-26T15:04:30;6.10;;;2.50;;
76228;SDS011;65021;53.174;18.160;2022-12-26T15:07:34;6.50;;;2.40;;
76228;SDS011;65021;53.174;18.160;2022-12-26T15:33:32;5.50;;;2.20;;
76228;SDS011;65021;53.174;18.160;2022-12-26T15:47:54;6.90;;;2.40;;
76228;SDS011;65021;53.174;18.160;2022-12-26T15:59:00;7.30;;;2.00;;
76228;SDS011;65021;53.174;18.160;2022-12-26T16:01:46;5.60;;;2.00;;
76228;SDS011;65021;53.174;18.160;2022-12-26T16:04:23;5.20;;;2.10;;
76228;SDS011;65021;53.174;18.160;2022-12-26T16:07:05;4.40;;;1.60;;
76228;SDS011;65021;53.174;18.160;2022-12-26T16:09:47;4.70;;;2.10;;
76228;SDS011;65021;53.174;18.160;2022-12-26T16:15:14;5.10;;;2.00;;
76228;SDS011;65021;53.174;18.160;2022-12-26T16:17:42;4.80;;;1.90;;
76228;SDS011;65021;53.174;18.160;2022-12-26T16:23:09;6.40;;;2.40;;
76228;SDS011;65021;53.174;18.160;2022-12-26T16:25:44;6.10;;;2.40;;
76228;SDS011;65021;53.174;18.160;2022-12-26T16:28:12;5.90;;;2.40;;
76228;SDS011;65021;53.174;18.160;2022-12-26T16:30:39;6.70;;;2.40;;
76228;SDS011;65021;53.174;18.160;2022-12-26T16:33:06;5.30;;;2.70;;
76228;SDS011;65021;53.174;18.160;2022-12-26T16:35:37;6.20;;;2.80;;
76228;SDS011;65021;53.174;18.160;2022-12-26T16:38:06;5.10;;;1.90;;
76228;SDS011;65021;53.174;18.160;2022-12-26T16:40:46;6.80;;;2.40;;
76228;SDS011;65021;53.174;18.160;2022-12-26T16:45:44;5.20;;;2.20;;
76228;SDS011;65021;53.174;18.160;2022-12-26T16:48:15;4.90;;;2.30;;
76228;SDS011;65021;53.174;18.160;2022-12-26T16:51:06;6.00;;;1.90;;
76228;SDS011;65021;53.174;18.160;2022-12-26T16:58:57;5.20;;;2.10;;
76228;SDS011;65021;53.174;18.160;2022-12-26T17:01:27;5.70;;;2.20;;
76228;SDS011;65021;53.174;18.160;2022-12-26T17:03:55;5.00;;;2.00;;
76228;SDS011;65021;53.174;18.160;2022-12-26T17:06:33;4.30;;;1.80;;
76228;SDS011;65021;53.174;18.160;2022-12-26T17:09:04;5.20;;;2.40;;
76228;SDS011;65021;53.174;18.160;2022-12-26T17:11:37;4.60;;;1.60;;
76228;SDS011;65021;53.174;18.160;2022-12-26T17:14:18;5.40;;;1.80;;
76228;SDS011;65021;53.174;18.160;2022-12-26T17:19:48;4.60;;;1.50;;
76228;SDS011;65021;53.174;18.160;2022-12-26T17:22:35;6.20;;;2.00;;
76228;SDS011;65021;53.174;18.160;2022-12-26T17:27:47;4.00;;;1.40;;
76228;SDS011;65021;53.174;18.160;2022-12-26T17:30:38;4.70;;;2.10;;
76228;SDS011;65021;53.174;18.160;2022-12-26T17:33:14;4.80;;;1.60;;
76228;SDS011;65021;53.174;18.160;2022-12-26T17:35:49;3.80;;;1.50;;
76228;SDS011;65021;53.174;18.160;2022-12-26T17:38:22;4.30;;;1.70;;
76228;SDS011;65021;53.174;18.160;2022-12-26T17:40:52;3.10;;;1.00;;
76228;SDS011;65021;53.174;18.160;2022-12-26T17:43:22;4.50;;;1.90;;
76228;SDS011;65021;53.174;18.160;2022-12-26T17:45:49;4.40;;;1.70;;
76228;SDS011;65021;53.174;18.160;2022-12-26T17:48:16;3.40;;;1.30;;
76228;SDS011;65021;53.174;18.160;2022-12-26T17:50:44;5.40;;;1.90;;
76228;SDS011;65021;53.174;18.160;2022-12-26T17:53:22;7.20;;;2.70;;
76228;SDS011;65021;53.174;18.160;2022-12-26T17:58:28;5.60;;;2.10;;
76228;SDS011;65021;53.174;18.160;2022-12-26T18:00:55;4.10;;;2.00;;
76228;SDS011;65021;53.174;18.160;2022-12-26T18:03:22;4.90;;;2.30;;
76228;SDS011;65021;53.174;18.160;2022-12-26T18:05:48;5.10;;;2.10;;
76228;SDS011;65021;53.174;18.160;2022-12-26T18:08:24;4.40;;;2.20;;
76228;SDS011;65021;53.174;18.160;2022-12-26T18:10:53;4.70;;;2.10;;
76228;SDS011;65021;53.174;18.160;2022-12-26T18:13:20;3.70;;;1.60;;
76228;SDS011;65021;53.174;18.160;2022-12-26T18:15:46;7.40;;;2.00;;
76228;SDS011;65021;53.174;18.160;2022-12-26T18:18:36;4.70;;;1.90;;
76228;SDS011;65021;53.174;18.160;2022-12-26T18:21:05;4.60;;;2.00;;
76228;SDS011;65021;53.174;18.160;2022-12-26T18:23:34;5.30;;;1.90;;
76228;SDS011;65021;53.174;18.160;2022-12-26T18:26:02;4.70;;;1.90;;
76228;SDS011;65021;53.174;18.160;2022-12-26T18:28:32;4.10;;;1.70;;
76228;SDS011;65021;53.174;18.160;2022-12-26T18:30:59;4.60;;;1.70;;
76228;SDS011;65021;53.174;18.160;2022-12-26T18:33:26;4.20;;;2.10;;
76228;SDS011;65021;53.174;18.160;2022-12-26T18:35:52;4.10;;;1.80;;
76228;SDS011;65021;53.174;18.160;2022-12-26T18:38:20;4.80;;;2.00;;
76228;SDS011;65021;53.174;18.160;2022-12-26T18:40:48;4.60;;;2.00;;
76228;SDS011;65021;53.174;18.160;2022-12-26T18:43:18;5.50;;;2.10;;
76228;SDS011;65021;53.174;18.160;2022-12-26T18:45:45;5.40;;;2.30;;
76228;SDS011;65021;53.174;18.160;2022-12-26T18:48:12;6.30;;;2.80;;
76228;SDS011;65021;53.174;18.160;2022-12-26T18:50:41;6.70;;;2.70;;
76228;SDS011;65021;53.174;18.160;2022-12-26T18:53:09;5.70;;;2.50;;